sensor_id;sensor_type;location;lat;lon;timestamp;P1;durP1;ratioP1;P2;durP2;ratioP2
64881;SDS011;51375;44.836;38.672;2024-01-06T00:00:23;2.47;;;1.95;;
64881;SDS011;51375;44.836;38.672;2024-01-06T00:02:49;3.08;;;2.28;;
64881;SDS011;51375;44.836;38.672;2024-01-06T00:05:15;3.13;;;2.17;;
64881;SDS011;51375;44.836;38.672;2024-01-06T00:07:40;3.08;;;2.20;;
64881;SDS011;51375;44.836;38.672;2024-01-06T00:10:06;3.45;;;2.28;;
64881;SDS011;51375;44.836;38.672;2024-01-06T00:12:32;4.53;;;2.40;;
64881;SDS011;51375;44.836;38.672;2024-01-06T00:14:58;4.45;;;2.40;;
64881;SDS011;51375;44.836;38.672;2024-01-06T00:17:24;5.57;;;2.50;;
64881;SDS011;51375;44.836;38.672;2024-01-06T00:19:50;4.50;;;2.47;;
64881;SDS011;51375;44.836;38.672;2024-01-06T00:22:17;4.25;;;2.13;;
64881;SDS011;51375;44.836;38.672;2024-01-06T00:24:44;4.90;;;2.20;;
64881;SDS011;51375;44.836;38.672;2024-01-06T00:27:10;6.95;;;2.45;;
64881;SDS011;51375;44.836;38.672;2024-01-06T00:29:37;4.80;;;1.80;;
64881;SDS011;51375;44.836;38.672;2024-01-06T00:32:03;3.40;;;2.28;;
64881;SDS011;51375;44.836;38.672;2024-01-06T00:34:29;5.68;;;2.60;;
64881;SDS011;51375;44.836;38.672;2024-01-06T00:36:55;3.90;;;2.17;;
64881;SDS011;51375;44.836;38.672;2024-01-06T00:39:21;5.03;;;2.47;;
64881;SDS011;51375;44.836;38.672;2024-01-06T00:41:47;2.72;;;2.25;;
64881;SDS011;51375;44.836;38.672;2024-01-06T00:44:12;3.97;;;2.17;;
64881;SDS011;51375;44.836;38.672;2024-01-06T00:46:38;2.90;;;2.17;;
64881;SDS011;51375;44.836;38.672;2024-01-06T00:49:04;4.63;;;2.40;;
64881;SDS011;51375;44.836;38.672;2024-01-06T00:51:30;2.97;;;2.00;;
64881;SDS011;51375;44.836;38.672;2024-01-06T00:53:57;3.53;;;2.28;;
64881;SDS011;51375;44.836;38.672;2024-01-06T00:56:23;4.00;;;2.20;;
64881;SDS011;51375;44.836;38.672;2024-01-06T00:58:49;5.93;;;2.67;;
64881;SDS011;51375;44.836;38.672;2024-01-06T01:01:15;6.82;;;2.20;;
64881;SDS011;51375;44.836;38.672;2024-01-06T01:03:41;5.15;;;2.78;;
64881;SDS011;51375;44.836;38.672;2024-01-06T01:06:06;2.88;;;2.28;;
64881;SDS011;51375;44.836;38.672;2024-01-06T01:08:33;3.85;;;2.60;;
64881;SDS011;51375;44.836;38.672;2024-01-06T01:10:59;4.85;;;2.28;;
64881;SDS011;51375;44.836;38.672;2024-01-06T01:13:25;3.03;;;1.95;;
64881;SDS011;51375;44.836;38.672;2024-01-06T01:15:51;4.75;;;2.47;;
64881;SDS011;51375;44.836;38.672;2024-01-06T01:18:17;4.28;;;2.55;;
64881;SDS011;51375;44.836;38.672;2024-01-06T01:20:42;5.82;;;2.25;;
64881;SDS011;51375;44.836;38.672;2024-01-06T01:23:08;2.55;;;1.98;;
64881;SDS011;51375;44.836;38.672;2024-01-06T01:25:34;3.13;;;2.13;;
64881;SDS011;51375;44.836;38.672;2024-01-06T01:28:00;4.78;;;2.00;;
64881;SDS011;51375;44.836;38.672;2024-01-06T01:30:27;3.50;;;2.30;;
64881;SDS011;51375;44.836;38.672;2024-01-06T01:32:53;9.10;;;4.07;;
64881;SDS011;51375;44.836;38.672;2024-01-06T01:35:18;7.60;;;4.28;;
64881;SDS011;51375;44.836;38.672;2024-01-06T01:37:44;4.68;;;3.15;;
64881;SDS011;51375;44.836;38.672;2024-01-06T01:40:10;4.82;;;2.60;;
64881;SDS011;51375;44.836;38.672;2024-01-06T01:42:36;3.42;;;2.40;;
64881;SDS011;51375;44.836;38.672;2024-01-06T01:45:03;3.13;;;2.10;;
64881;SDS011;51375;44.836;38.672;2024-01-06T01:47:30;3.38;;;2.17;;
64881;SDS011;51375;44.836;38.672;2024-01-06T01:49:56;4.00;;;2.00;;
64881;SDS011;51375;44.836;38.672;2024-01-06T01:52:22;3.35;;;1.90;;
64881;SDS011;51375;44.836;38.672;2024-01-06T01:54:49;2.25;;;1.95;;
64881;SDS011;51375;44.836;38.672;2024-01-06T01:57:16;3.13;;;1.67;;
64881;SDS011;51375;44.836;38.672;2024-01-06T01:59:42;6.68;;;2.38;;
64881;SDS011;51375;44.836;38.672;2024-01-06T02:02:08;2.28;;;1.80;;
64881;SDS011;51375;44.836;38.672;2024-01-06T02:04:35;6.05;;;2.08;;
64881;SDS011;51375;44.836;38.672;2024-01-06T02:07:01;12.90;;;2.28;;
64881;SDS011;51375;44.836;38.672;2024-01-06T02:09:26;4.70;;;2.03;;
64881;SDS011;51375;44.836;38.672;2024-01-06T02:11:56;22.02;;;2.85;;
64881;SDS011;51375;44.836;38.672;2024-01-06T02:14:23;5.63;;;2.65;;
64881;SDS011;51375;44.836;38.672;2024-01-06T02:16:49;4.57;;;2.60;;
64881;SDS011;51375;44.836;38.672;2024-01-06T02:19:15;6.72;;;2.60;;
64881;SDS011;51375;44.836;38.672;2024-01-06T02:21:43;4.30;;;2.70;;
64881;SDS011;51375;44.836;38.672;2024-01-06T02:24:13;4.63;;;2.42;;
64881;SDS011;51375;44.836;38.672;2024-01-06T02:26:39;6.18;;;2.50;;
64881;SDS011;51375;44.836;38.672;2024-01-06T02:29:05;4.05;;;2.72;;
64881;SDS011;51375;44.836;38.672;2024-01-06T02:31:31;5.32;;;2.35;;
64881;SDS011;51375;44.836;38.672;2024-01-06T02:33:57;3.63;;;2.35;;
64881;SDS011;51375;44.836;38.672;2024-01-06T02:36:23;6.60;;;2.53;;
64881;SDS011;51375;44.836;38.672;2024-01-06T02:38:49;2.88;;;2.30;;
64881;SDS011;51375;44.836;38.672;2024-01-06T02:41:14;4.40;;;2.40;;
64881;SDS011;51375;44.836;38.672;2024-01-06T02:43:40;5.28;;;2.58;;
64881;SDS011;51375;44.836;38.672;2024-01-06T02:46:06;3.10;;;2.20;;
64881;SDS011;51375;44.836;38.672;2024-01-06T02:48:32;4.20;;;2.22;;
64881;SDS011;51375;44.836;38.672;2024-01-06T02:50:58;6.20;;;2.83;;
64881;SDS011;51375;44.836;38.672;2024-01-06T02:53:24;4.88;;;2.40;;
64881;SDS011;51375;44.836;38.672;2024-01-06T02:55:50;4.90;;;2.10;;
64881;SDS011;51375;44.836;38.672;2024-01-06T02:58:16;4.57;;;2.22;;
64881;SDS011;51375;44.836;38.672;2024-01-06T03:00:42;5.32;;;2.33;;
64881;SDS011;51375;44.836;38.672;2024-01-06T03:03:07;5.80;;;2.58;;
64881;SDS011;51375;44.836;38.672;2024-01-06T03:05:33;2.85;;;2.40;;
64881;SDS011;51375;44.836;38.672;2024-01-06T03:07:59;5.70;;;2.50;;
64881;SDS011;51375;44.836;38.672;2024-01-06T03:10:25;4.15;;;2.50;;
64881;SDS011;51375;44.836;38.672;2024-01-06T03:12:51;3.65;;;2.60;;
64881;SDS011;51375;44.836;38.672;2024-01-06T03:15:17;7.00;;;2.30;;
64881;SDS011;51375;44.836;38.672;2024-01-06T03:17:43;3.80;;;2.22;;
64881;SDS011;51375;44.836;38.672;2024-01-06T03:20:09;4.80;;;2.00;;
64881;SDS011;51375;44.836;38.672;2024-01-06T03:22:35;2.90;;;2.33;;
64881;SDS011;51375;44.836;38.672;2024-01-06T03:25:03;3.13;;;2.05;;
64881;SDS011;51375;44.836;38.672;2024-01-06T03:27:30;8.70;;;2.67;;
64881;SDS011;51375;44.836;38.672;2024-01-06T03:29:56;3.97;;;2.40;;
64881;SDS011;51375;44.836;38.672;2024-01-06T03:32:21;10.70;;;2.40;;
64881;SDS011;51375;44.836;38.672;2024-01-06T03:34:47;3.92;;;2.30;;
64881;SDS011;51375;44.836;38.672;2024-01-06T03:37:13;3.72;;;2.15;;
64881;SDS011;51375;44.836;38.672;2024-01-06T03:39:39;4.80;;;2.53;;
64881;SDS011;51375;44.836;38.672;2024-01-06T03:42:05;2.78;;;2.00;;
64881;SDS011;51375;44.836;38.672;2024-01-06T03:44:31;2.45;;;2.15;;
64881;SDS011;51375;44.836;38.672;2024-01-06T03:46:59;3.00;;;1.95;;
64881;SDS011;51375;44.836;38.672;2024-01-06T03:49:25;8.02;;;2.13;;
64881;SDS011;51375;44.836;38.672;2024-01-06T03:51:52;4.20;;;1.88;;
64881;SDS011;51375;44.836;38.672;2024-01-06T03:54:18;5.53;;;2.00;;
64881;SDS011;51375;44.836;38.672;2024-01-06T03:56:44;2.13;;;1.92;;
64881;SDS011;51375;44.836;38.672;2024-01-06T03:59:10;5.60;;;2.53;;
64881;SDS011;51375;44.836;38.672;2024-01-06T04:01:36;2.38;;;1.85;;
64881;SDS011;51375;44.836;38.672;2024-01-06T04:04:02;2.65;;;1.75;;
64881;SDS011;51375;44.836;38.672;2024-01-06T04:06:29;2.60;;;2.05;;
64881;SDS011;51375;44.836;38.672;2024-01-06T04:08:55;3.28;;;2.28;;
64881;SDS011;51375;44.836;38.672;2024-01-06T04:11:21;5.18;;;2.15;;
64881;SDS011;51375;44.836;38.672;2024-01-06T04:13:47;2.78;;;2.10;;
64881;SDS011;51375;44.836;38.672;2024-01-06T04:16:13;4.80;;;2.33;;
64881;SDS011;51375;44.836;38.672;2024-01-06T04:18:39;4.93;;;2.50;;
64881;SDS011;51375;44.836;38.672;2024-01-06T04:21:05;6.50;;;2.50;;
64881;SDS011;51375;44.836;38.672;2024-01-06T04:23:31;2.78;;;2.03;;
64881;SDS011;51375;44.836;38.672;2024-01-06T04:26:00;3.92;;;1.80;;
64881;SDS011;51375;44.836;38.672;2024-01-06T04:28:26;9.38;;;2.17;;
64881;SDS011;51375;44.836;38.672;2024-01-06T04:30:53;5.15;;;2.15;;
64881;SDS011;51375;44.836;38.672;2024-01-06T04:33:19;3.72;;;1.85;;
64881;SDS011;51375;44.836;38.672;2024-01-06T04:35:44;4.47;;;2.10;;
64881;SDS011;51375;44.836;38.672;2024-01-06T04:38:10;6.95;;;2.20;;
64881;SDS011;51375;44.836;38.672;2024-01-06T04:40:36;2.38;;;1.60;;
64881;SDS011;51375;44.836;38.672;2024-01-06T04:43:02;3.60;;;2.00;;
64881;SDS011;51375;44.836;38.672;2024-01-06T04:45:29;3.13;;;1.98;;
64881;SDS011;51375;44.836;38.672;2024-01-06T04:51:42;2.97;;;1.83;;
64881;SDS011;51375;44.836;38.672;2024-01-06T04:54:07;1.80;;;1.70;;
64881;SDS011;51375;44.836;38.672;2024-01-06T04:56:33;1.90;;;1.73;;
64881;SDS011;51375;44.836;38.672;2024-01-06T04:58:59;2.60;;;1.95;;
64881;SDS011;51375;44.836;38.672;2024-01-06T05:01:25;10.60;;;1.92;;
64881;SDS011;51375;44.836;38.672;2024-01-06T05:03:51;5.28;;;2.00;;
64881;SDS011;51375;44.836;38.672;2024-01-06T05:06:17;5.50;;;1.88;;
64881;SDS011;51375;44.836;38.672;2024-01-06T05:08:43;2.15;;;1.95;;
64881;SDS011;51375;44.836;38.672;2024-01-06T05:11:10;4.65;;;2.05;;
64881;SDS011;51375;44.836;38.672;2024-01-06T05:13:37;3.08;;;2.10;;
64881;SDS011;51375;44.836;38.672;2024-01-06T05:16:03;2.15;;;1.77;;
64881;SDS011;51375;44.836;38.672;2024-01-06T05:18:29;5.10;;;1.67;;
64881;SDS011;51375;44.836;38.672;2024-01-06T05:20:56;2.55;;;1.90;;
64881;SDS011;51375;44.836;38.672;2024-01-06T05:23:22;2.10;;;1.70;;
64881;SDS011;51375;44.836;38.672;2024-01-06T05:25:48;2.08;;;1.88;;
64881;SDS011;51375;44.836;38.672;2024-01-06T05:28:14;2.47;;;1.70;;
64881;SDS011;51375;44.836;38.672;2024-01-06T05:30:41;4.65;;;2.00;;
64881;SDS011;51375;44.836;38.672;2024-01-06T05:33:09;4.18;;;2.13;;
64881;SDS011;51375;44.836;38.672;2024-01-06T05:35:38;3.67;;;1.98;;
64881;SDS011;51375;44.836;38.672;2024-01-06T05:38:04;2.92;;;2.00;;
64881;SDS011;51375;44.836;38.672;2024-01-06T05:40:30;8.02;;;1.88;;
64881;SDS011;51375;44.836;38.672;2024-01-06T05:42:56;2.13;;;1.80;;
64881;SDS011;51375;44.836;38.672;2024-01-06T05:45:22;1.70;;;1.60;;
64881;SDS011;51375;44.836;38.672;2024-01-06T05:47:48;4.85;;;1.80;;
64881;SDS011;51375;44.836;38.672;2024-01-06T05:50:17;3.40;;;1.90;;
64881;SDS011;51375;44.836;38.672;2024-01-06T05:52:44;3.10;;;2.10;;
64881;SDS011;51375;44.836;38.672;2024-01-06T05:55:10;5.00;;;2.10;;
64881;SDS011;51375;44.836;38.672;2024-01-06T05:57:36;3.17;;;1.70;;
64881;SDS011;51375;44.836;38.672;2024-01-06T06:00:01;3.05;;;1.83;;
64881;SDS011;51375;44.836;38.672;2024-01-06T06:02:37;4.28;;;2.25;;
64881;SDS011;51375;44.836;38.672;2024-01-06T06:05:05;2.58;;;1.75;;
64881;SDS011;51375;44.836;38.672;2024-01-06T06:07:31;4.32;;;2.40;;
64881;SDS011;51375;44.836;38.672;2024-01-06T06:12:31;5.05;;;2.00;;
64881;SDS011;51375;44.836;38.672;2024-01-06T06:14:57;5.57;;;2.33;;
64881;SDS011;51375;44.836;38.672;2024-01-06T06:17:23;5.82;;;2.95;;
64881;SDS011;51375;44.836;38.672;2024-01-06T06:19:51;11.55;;;3.40;;
64881;SDS011;51375;44.836;38.672;2024-01-06T06:22:16;6.80;;;4.60;;
64881;SDS011;51375;44.836;38.672;2024-01-06T06:24:43;7.50;;;4.57;;
64881;SDS011;51375;44.836;38.672;2024-01-06T06:27:09;21.70;;;10.00;;
64881;SDS011;51375;44.836;38.672;2024-01-06T06:29:35;20.25;;;10.77;;
64881;SDS011;51375;44.836;38.672;2024-01-06T06:32:01;34.15;;;19.83;;
64881;SDS011;51375;44.836;38.672;2024-01-06T06:34:26;35.92;;;21.10;;
64881;SDS011;51375;44.836;38.672;2024-01-06T06:36:53;30.75;;;14.50;;
64881;SDS011;51375;44.836;38.672;2024-01-06T06:39:18;18.35;;;8.77;;
64881;SDS011;51375;44.836;38.672;2024-01-06T06:41:44;7.10;;;4.00;;
64881;SDS011;51375;44.836;38.672;2024-01-06T06:44:10;10.32;;;6.40;;
64881;SDS011;51375;44.836;38.672;2024-01-06T06:46:37;8.15;;;4.70;;
64881;SDS011;51375;44.836;38.672;2024-01-06T06:49:03;4.95;;;3.70;;
64881;SDS011;51375;44.836;38.672;2024-01-06T06:51:29;4.03;;;2.80;;
64881;SDS011;51375;44.836;38.672;2024-01-06T06:53:56;5.20;;;3.10;;
64881;SDS011;51375;44.836;38.672;2024-01-06T06:56:22;13.50;;;6.20;;
64881;SDS011;51375;44.836;38.672;2024-01-06T06:58:48;9.80;;;4.10;;
64881;SDS011;51375;44.836;38.672;2024-01-06T07:01:14;7.22;;;2.65;;
64881;SDS011;51375;44.836;38.672;2024-01-06T07:03:41;3.78;;;2.50;;
64881;SDS011;51375;44.836;38.672;2024-01-06T07:06:07;4.80;;;2.50;;
64881;SDS011;51375;44.836;38.672;2024-01-06T07:08:33;5.85;;;2.50;;
64881;SDS011;51375;44.836;38.672;2024-01-06T07:10:59;7.35;;;2.90;;
64881;SDS011;51375;44.836;38.672;2024-01-06T07:13:25;4.38;;;2.70;;
64881;SDS011;51375;44.836;38.672;2024-01-06T07:15:51;5.80;;;2.72;;
64881;SDS011;51375;44.836;38.672;2024-01-06T07:18:17;5.57;;;2.42;;
64881;SDS011;51375;44.836;38.672;2024-01-06T07:20:48;6.47;;;2.05;;
64881;SDS011;51375;44.836;38.672;2024-01-06T07:23:14;3.72;;;2.28;;
64881;SDS011;51375;44.836;38.672;2024-01-06T07:25:40;4.97;;;2.38;;
64881;SDS011;51375;44.836;38.672;2024-01-06T07:28:06;4.07;;;2.65;;
64881;SDS011;51375;44.836;38.672;2024-01-06T07:30:33;5.03;;;2.58;;
64881;SDS011;51375;44.836;38.672;2024-01-06T07:32:59;3.85;;;2.58;;
64881;SDS011;51375;44.836;38.672;2024-01-06T07:35:25;7.18;;;2.53;;
64881;SDS011;51375;44.836;38.672;2024-01-06T07:37:51;4.88;;;2.30;;
64881;SDS011;51375;44.836;38.672;2024-01-06T07:40:18;7.53;;;2.22;;
64881;SDS011;51375;44.836;38.672;2024-01-06T07:42:44;8.15;;;2.83;;
64881;SDS011;51375;44.836;38.672;2024-01-06T07:45:10;5.72;;;2.38;;
64881;SDS011;51375;44.836;38.672;2024-01-06T07:47:36;6.72;;;2.90;;
64881;SDS011;51375;44.836;38.672;2024-01-06T07:50:03;4.65;;;2.63;;
64881;SDS011;51375;44.836;38.672;2024-01-06T07:52:30;7.35;;;2.20;;
64881;SDS011;51375;44.836;38.672;2024-01-06T07:54:56;8.43;;;2.90;;
64881;SDS011;51375;44.836;38.672;2024-01-06T07:57:22;5.13;;;2.50;;
64881;SDS011;51375;44.836;38.672;2024-01-06T07:59:48;3.42;;;2.50;;
64881;SDS011;51375;44.836;38.672;2024-01-06T08:02:14;5.13;;;2.50;;
64881;SDS011;51375;44.836;38.672;2024-01-06T08:04:39;6.55;;;2.83;;
64881;SDS011;51375;44.836;38.672;2024-01-06T08:07:05;4.82;;;2.85;;
64881;SDS011;51375;44.836;38.672;2024-01-06T08:09:31;4.55;;;2.47;;
64881;SDS011;51375;44.836;38.672;2024-01-06T08:11:57;3.97;;;2.60;;
64881;SDS011;51375;44.836;38.672;2024-01-06T08:14:23;3.20;;;2.40;;
64881;SDS011;51375;44.836;38.672;2024-01-06T08:16:49;7.63;;;2.40;;
64881;SDS011;51375;44.836;38.672;2024-01-06T08:19:15;4.18;;;2.47;;
64881;SDS011;51375;44.836;38.672;2024-01-06T08:21:41;7.80;;;2.53;;
64881;SDS011;51375;44.836;38.672;2024-01-06T08:24:07;3.55;;;2.22;;
64881;SDS011;51375;44.836;38.672;2024-01-06T08:26:33;3.65;;;2.60;;
64881;SDS011;51375;44.836;38.672;2024-01-06T08:28:59;4.93;;;2.10;;
64881;SDS011;51375;44.836;38.672;2024-01-06T08:31:25;5.47;;;2.28;;
64881;SDS011;51375;44.836;38.672;2024-01-06T08:33:50;4.82;;;2.55;;
64881;SDS011;51375;44.836;38.672;2024-01-06T08:36:16;6.22;;;2.83;;
64881;SDS011;51375;44.836;38.672;2024-01-06T08:38:42;11.30;;;5.70;;
64881;SDS011;51375;44.836;38.672;2024-01-06T08:41:08;9.90;;;5.88;;
64881;SDS011;51375;44.836;38.672;2024-01-06T08:43:34;4.07;;;2.65;;
64881;SDS011;51375;44.836;38.672;2024-01-06T08:46:00;3.55;;;2.42;;
64881;SDS011;51375;44.836;38.672;2024-01-06T08:48:27;6.20;;;3.15;;
64881;SDS011;51375;44.836;38.672;2024-01-06T08:50:53;5.70;;;3.13;;
64881;SDS011;51375;44.836;38.672;2024-01-06T08:53:19;13.52;;;7.13;;
64881;SDS011;51375;44.836;38.672;2024-01-06T08:55:45;17.65;;;8.13;;
64881;SDS011;51375;44.836;38.672;2024-01-06T08:58:11;12.30;;;7.30;;
64881;SDS011;51375;44.836;38.672;2024-01-06T09:00:37;15.18;;;7.68;;
64881;SDS011;51375;44.836;38.672;2024-01-06T09:03:03;9.85;;;5.70;;
64881;SDS011;51375;44.836;38.672;2024-01-06T09:05:29;2.90;;;2.00;;
64881;SDS011;51375;44.836;38.672;2024-01-06T09:07:55;2.10;;;1.13;;
64881;SDS011;51375;44.836;38.672;2024-01-06T09:10:21;1.17;;;0.90;;
64881;SDS011;51375;44.836;38.672;2024-01-06T09:12:47;1.60;;;1.00;;
64881;SDS011;51375;44.836;38.672;2024-01-06T09:15:13;2.13;;;1.40;;
64881;SDS011;51375;44.836;38.672;2024-01-06T09:17:39;3.67;;;2.10;;
64881;SDS011;51375;44.836;38.672;2024-01-06T09:20:05;4.95;;;1.27;;
64881;SDS011;51375;44.836;38.672;2024-01-06T09:22:32;2.90;;;1.50;;
64881;SDS011;51375;44.836;38.672;2024-01-06T09:24:57;2.70;;;1.83;;
64881;SDS011;51375;44.836;38.672;2024-01-06T09:27:24;1.38;;;1.02;;
64881;SDS011;51375;44.836;38.672;2024-01-06T09:29:50;1.60;;;1.10;;
64881;SDS011;51375;44.836;38.672;2024-01-06T09:32:16;3.95;;;1.10;;
64881;SDS011;51375;44.836;38.672;2024-01-06T09:34:42;1.02;;;0.70;;
64881;SDS011;51375;44.836;38.672;2024-01-06T09:37:08;0.90;;;0.70;;
64881;SDS011;51375;44.836;38.672;2024-01-06T09:39:33;2.40;;;0.80;;
64881;SDS011;51375;44.836;38.672;2024-01-06T09:41:59;0.70;;;0.70;;
64881;SDS011;51375;44.836;38.672;2024-01-06T09:44:26;5.80;;;1.10;;
64881;SDS011;51375;44.836;38.672;2024-01-06T09:46:52;1.95;;;0.90;;
64881;SDS011;51375;44.836;38.672;2024-01-06T09:49:22;1.45;;;0.70;;
64881;SDS011;51375;44.836;38.672;2024-01-06T09:51:49;1.90;;;1.08;;
64881;SDS011;51375;44.836;38.672;2024-01-06T09:54:21;5.20;;;0.90;;
64881;SDS011;51375;44.836;38.672;2024-01-06T09:56:49;2.25;;;0.70;;
64881;SDS011;51375;44.836;38.672;2024-01-06T09:59:16;2.83;;;0.90;;
64881;SDS011;51375;44.836;38.672;2024-01-06T10:01:45;2.00;;;0.95;;
64881;SDS011;51375;44.836;38.672;2024-01-06T10:04:11;1.75;;;0.90;;
64881;SDS011;51375;44.836;38.672;2024-01-06T10:06:37;3.03;;;1.00;;
64881;SDS011;51375;44.836;38.672;2024-01-06T10:09:03;2.33;;;0.70;;
64881;SDS011;51375;44.836;38.672;2024-01-06T10:11:30;1.85;;;0.90;;
64881;SDS011;51375;44.836;38.672;2024-01-06T10:13:56;0.82;;;0.80;;
64881;SDS011;51375;44.836;38.672;2024-01-06T10:16:22;4.95;;;1.00;;
64881;SDS011;51375;44.836;38.672;2024-01-06T10:18:48;1.67;;;0.70;;
64881;SDS011;51375;44.836;38.672;2024-01-06T10:21:14;1.67;;;0.80;;
64881;SDS011;51375;44.836;38.672;2024-01-06T10:23:42;1.38;;;0.80;;
64881;SDS011;51375;44.836;38.672;2024-01-06T10:26:13;1.85;;;1.00;;
64881;SDS011;51375;44.836;38.672;2024-01-06T10:28:39;0.93;;;0.75;;
64881;SDS011;51375;44.836;38.672;2024-01-06T10:31:07;0.80;;;0.70;;
64881;SDS011;51375;44.836;38.672;2024-01-06T10:33:34;1.85;;;0.90;;
64881;SDS011;51375;44.836;38.672;2024-01-06T10:36:04;1.33;;;0.98;;
64881;SDS011;51375;44.836;38.672;2024-01-06T10:38:32;3.15;;;0.73;;
64881;SDS011;51375;44.836;38.672;2024-01-06T10:41:02;1.65;;;0.88;;
64881;SDS011;51375;44.836;38.672;2024-01-06T10:43:35;4.00;;;1.67;;
64881;SDS011;51375;44.836;38.672;2024-01-06T10:46:05;2.10;;;0.70;;
64881;SDS011;51375;44.836;38.672;2024-01-06T10:48:35;1.48;;;0.80;;
64881;SDS011;51375;44.836;38.672;2024-01-06T10:53:35;2.63;;;0.95;;
64881;SDS011;51375;44.836;38.672;2024-01-06T10:56:03;1.80;;;0.90;;
64881;SDS011;51375;44.836;38.672;2024-01-06T10:58:30;3.25;;;0.80;;
64881;SDS011;51375;44.836;38.672;2024-01-06T11:00:58;6.85;;;1.05;;
64881;SDS011;51375;44.836;38.672;2024-01-06T11:03:25;44.85;;;12.55;;
64881;SDS011;51375;44.836;38.672;2024-01-06T11:05:54;30.73;;;7.63;;
64881;SDS011;51375;44.836;38.672;2024-01-06T11:08:20;4.88;;;1.95;;
64881;SDS011;51375;44.836;38.672;2024-01-06T11:10:47;9.00;;;2.90;;
64881;SDS011;51375;44.836;38.672;2024-01-06T11:13:21;10.00;;;3.15;;
64881;SDS011;51375;44.836;38.672;2024-01-06T11:15:49;20.65;;;6.70;;
64881;SDS011;51375;44.836;38.672;2024-01-06T11:18:32;5.05;;;1.70;;
64881;SDS011;51375;44.836;38.672;2024-01-06T11:21:18;3.78;;;1.27;;
64881;SDS011;51375;44.836;38.672;2024-01-06T11:24:08;13.52;;;4.00;;
64881;SDS011;51375;44.836;38.672;2024-01-06T11:26:39;4.75;;;1.98;;
64881;SDS011;51375;44.836;38.672;2024-01-06T11:29:07;5.80;;;1.95;;
64881;SDS011;51375;44.836;38.672;2024-01-06T11:31:34;9.73;;;3.88;;
64881;SDS011;51375;44.836;38.672;2024-01-06T11:34:15;6.95;;;2.88;;
64881;SDS011;51375;44.836;38.672;2024-01-06T11:36:45;9.52;;;4.00;;
64881;SDS011;51375;44.836;38.672;2024-01-06T11:42:15;4.82;;;2.40;;
64881;SDS011;51375;44.836;38.672;2024-01-06T11:44:44;1.60;;;1.20;;
64881;SDS011;51375;44.836;38.672;2024-01-06T11:47:15;1.20;;;0.85;;
64881;SDS011;51375;44.836;38.672;2024-01-06T11:49:46;3.90;;;0.95;;
64881;SDS011;51375;44.836;38.672;2024-01-06T11:52:13;1.45;;;1.10;;
64881;SDS011;51375;44.836;38.672;2024-01-06T11:54:39;2.75;;;0.93;;
64881;SDS011;51375;44.836;38.672;2024-01-06T11:57:07;1.63;;;0.85;;
64881;SDS011;51375;44.836;38.672;2024-01-06T11:59:33;4.07;;;1.10;;
64881;SDS011;51375;44.836;38.672;2024-01-06T12:01:59;6.18;;;1.77;;
64881;SDS011;51375;44.836;38.672;2024-01-06T12:04:25;3.97;;;1.33;;
64881;SDS011;51375;44.836;38.672;2024-01-06T12:06:52;3.42;;;1.17;;
64881;SDS011;51375;44.836;38.672;2024-01-06T12:09:20;2.17;;;0.93;;
64881;SDS011;51375;44.836;38.672;2024-01-06T12:11:46;1.45;;;0.75;;
64881;SDS011;51375;44.836;38.672;2024-01-06T12:14:12;1.27;;;0.75;;
64881;SDS011;51375;44.836;38.672;2024-01-06T12:16:38;2.88;;;1.42;;
64881;SDS011;51375;44.836;38.672;2024-01-06T12:19:04;1.35;;;1.10;;
64881;SDS011;51375;44.836;38.672;2024-01-06T12:21:30;4.07;;;0.80;;
64881;SDS011;51375;44.836;38.672;2024-01-06T12:26:56;1.98;;;1.25;;
64881;SDS011;51375;44.836;38.672;2024-01-06T12:29:26;3.53;;;1.00;;
64881;SDS011;51375;44.836;38.672;2024-01-06T12:31:58;5.15;;;1.00;;
64881;SDS011;51375;44.836;38.672;2024-01-06T12:34:25;3.65;;;1.02;;
64881;SDS011;51375;44.836;38.672;2024-01-06T12:36:52;5.40;;;1.20;;
64881;SDS011;51375;44.836;38.672;2024-01-06T12:39:20;4.53;;;0.80;;
64881;SDS011;51375;44.836;38.672;2024-01-06T12:41:46;2.00;;;0.90;;
64881;SDS011;51375;44.836;38.672;2024-01-06T12:44:12;4.25;;;1.15;;
64881;SDS011;51375;44.836;38.672;2024-01-06T12:46:38;2.03;;;1.05;;
64881;SDS011;51375;44.836;38.672;2024-01-06T12:49:04;0.95;;;0.70;;
64881;SDS011;51375;44.836;38.672;2024-01-06T12:51:30;2.90;;;1.10;;
64881;SDS011;51375;44.836;38.672;2024-01-06T12:53:57;2.03;;;0.95;;
64881;SDS011;51375;44.836;38.672;2024-01-06T12:56:23;2.88;;;1.02;;
64881;SDS011;51375;44.836;38.672;2024-01-06T12:58:49;5.38;;;1.00;;
64881;SDS011;51375;44.836;38.672;2024-01-06T13:01:15;5.63;;;1.20;;
64881;SDS011;51375;44.836;38.672;2024-01-06T13:03:42;1.92;;;1.20;;
64881;SDS011;51375;44.836;38.672;2024-01-06T13:06:09;2.35;;;0.93;;
64881;SDS011;51375;44.836;38.672;2024-01-06T13:08:35;2.55;;;0.90;;
64881;SDS011;51375;44.836;38.672;2024-01-06T13:11:02;3.90;;;1.55;;
64881;SDS011;51375;44.836;38.672;2024-01-06T13:13:28;4.28;;;1.00;;
64881;SDS011;51375;44.836;38.672;2024-01-06T13:15:56;2.45;;;0.95;;
64881;SDS011;51375;44.836;38.672;2024-01-06T13:18:22;1.65;;;0.90;;
64881;SDS011;51375;44.836;38.672;2024-01-06T13:20:48;2.00;;;1.02;;
64881;SDS011;51375;44.836;38.672;2024-01-06T13:23:15;4.65;;;1.45;;
64881;SDS011;51375;44.836;38.672;2024-01-06T13:25:41;3.00;;;1.20;;
64881;SDS011;51375;44.836;38.672;2024-01-06T13:28:07;1.40;;;0.93;;
64881;SDS011;51375;44.836;38.672;2024-01-06T13:30:33;3.90;;;1.10;;
64881;SDS011;51375;44.836;38.672;2024-01-06T13:32:59;1.33;;;0.85;;
64881;SDS011;51375;44.836;38.672;2024-01-06T13:35:25;4.03;;;1.55;;
64881;SDS011;51375;44.836;38.672;2024-01-06T13:37:52;3.72;;;1.00;;
64881;SDS011;51375;44.836;38.672;2024-01-06T13:40:18;2.67;;;1.02;;
64881;SDS011;51375;44.836;38.672;2024-01-06T13:42:47;2.35;;;1.17;;
64881;SDS011;51375;44.836;38.672;2024-01-06T13:45:14;3.15;;;1.10;;
64881;SDS011;51375;44.836;38.672;2024-01-06T13:47:41;2.50;;;1.00;;
64881;SDS011;51375;44.836;38.672;2024-01-06T13:50:13;4.43;;;1.10;;
64881;SDS011;51375;44.836;38.672;2024-01-06T13:52:41;3.35;;;1.20;;
64881;SDS011;51375;44.836;38.672;2024-01-06T13:55:08;3.95;;;1.60;;
64881;SDS011;51375;44.836;38.672;2024-01-06T13:57:34;6.53;;;1.42;;
64881;SDS011;51375;44.836;38.672;2024-01-06T14:00:00;3.85;;;1.27;;
64881;SDS011;51375;44.836;38.672;2024-01-06T14:02:37;3.53;;;1.20;;
64881;SDS011;51375;44.836;38.672;2024-01-06T14:05:04;6.43;;;1.50;;
64881;SDS011;51375;44.836;38.672;2024-01-06T14:07:34;3.08;;;1.02;;
64881;SDS011;51375;44.836;38.672;2024-01-06T14:10:00;2.95;;;0.93;;
64881;SDS011;51375;44.836;38.672;2024-01-06T14:12:28;6.95;;;1.30;;
64881;SDS011;51375;44.836;38.672;2024-01-06T14:14:55;4.82;;;1.20;;
64881;SDS011;51375;44.836;38.672;2024-01-06T14:17:21;3.72;;;1.10;;
64881;SDS011;51375;44.836;38.672;2024-01-06T14:19:47;12.07;;;4.45;;
64881;SDS011;51375;44.836;38.672;2024-01-06T14:22:13;3.45;;;1.95;;
64881;SDS011;51375;44.836;38.672;2024-01-06T14:24:40;0.98;;;0.77;;
64881;SDS011;51375;44.836;38.672;2024-01-06T14:27:06;4.68;;;1.00;;
64881;SDS011;51375;44.836;38.672;2024-01-06T14:29:34;5.05;;;1.35;;
64881;SDS011;51375;44.836;38.672;2024-01-06T14:32:00;2.63;;;0.90;;
64881;SDS011;51375;44.836;38.672;2024-01-06T14:34:26;3.17;;;0.90;;
64881;SDS011;51375;44.836;38.672;2024-01-06T14:36:52;1.83;;;0.90;;
64881;SDS011;51375;44.836;38.672;2024-01-06T14:39:18;4.82;;;1.20;;
64881;SDS011;51375;44.836;38.672;2024-01-06T14:41:47;2.15;;;1.10;;
64881;SDS011;51375;44.836;38.672;2024-01-06T14:44:13;3.85;;;1.20;;